sensor_id;sensor_type;location;lat;lon;timestamp;P1;durP1;ratioP1;P2;durP2;ratioP2
39890;SDS011;25564;53.312;9.790;2023-06-10T00:01:43;9.73;;;3.03;;
39890;SDS011;25564;53.312;9.790;2023-06-10T00:04:18;7.38;;;2.30;;
39890;SDS011;25564;53.312;9.790;2023-06-10T00:06:49;8.33;;;3.37;;
39890;SDS011;25564;53.312;9.790;2023-06-10T00:09:21;8.40;;;2.70;;
39890;SDS011;25564;53.312;9.790;2023-06-10T00:11:53;5.57;;;3.07;;
39890;SDS011;25564;53.312;9.790;2023-06-10T00:14:25;4.47;;;2.60;;
39890;SDS011;25564;53.312;9.790;2023-06-10T00:16:56;8.27;;;2.97;;
39890;SDS011;25564;53.312;9.790;2023-06-10T00:19:28;5.37;;;2.40;;
39890;SDS011;25564;53.312;9.790;2023-06-10T00:22:01;6.63;;;2.73;;
39890;SDS011;25564;53.312;9.790;2023-06-10T00:24:32;8.73;;;2.97;;
39890;SDS011;25564;53.312;9.790;2023-06-10T00:27:04;5.93;;;2.57;;
39890;SDS011;25564;53.312;9.790;2023-06-10T00:29:36;6.67;;;2.90;;
39890;SDS011;25564;53.312;9.790;2023-06-10T00:32:08;9.43;;;3.13;;
39890;SDS011;25564;53.312;9.790;2023-06-10T00:34:39;10.00;;;3.20;;
39890;SDS011;25564;53.312;9.790;2023-06-10T00:37:11;7.50;;;2.83;;
39890;SDS011;25564;53.312;9.790;2023-06-10T00:39:42;8.07;;;2.33;;
39890;SDS011;25564;53.312;9.790;2023-06-10T00:42:13;5.47;;;2.93;;
39890;SDS011;25564;53.312;9.790;2023-06-10T00:44:45;9.30;;;3.27;;
39890;SDS011;25564;53.312;9.790;2023-06-10T00:47:16;7.53;;;3.30;;
39890;SDS011;25564;53.312;9.790;2023-06-10T00:49:49;7.17;;;2.73;;
39890;SDS011;25564;53.312;9.790;2023-06-10T00:52:22;3.90;;;2.33;;
39890;SDS011;25564;53.312;9.790;2023-06-10T00:54:58;5.90;;;3.20;;
39890;SDS011;25564;53.312;9.790;2023-06-10T00:57:30;7.37;;;3.63;;
39890;SDS011;25564;53.312;9.790;2023-06-10T01:00:03;9.00;;;2.77;;
39890;SDS011;25564;53.312;9.790;2023-06-10T01:02:38;5.40;;;2.20;;
39890;SDS011;25564;53.312;9.790;2023-06-10T01:05:10;6.77;;;2.90;;
39890;SDS011;25564;53.312;9.790;2023-06-10T01:07:55;5.47;;;2.80;;
39890;SDS011;25564;53.312;9.790;2023-06-10T01:10:33;7.27;;;2.47;;
39890;SDS011;25564;53.312;9.790;2023-06-10T01:13:09;8.57;;;3.17;;
39890;SDS011;25564;53.312;9.790;2023-06-10T01:15:43;6.60;;;2.60;;
39890;SDS011;25564;53.312;9.790;2023-06-10T01:18:14;9.07;;;2.73;;
39890;SDS011;25564;53.312;9.790;2023-06-10T01:20:47;7.20;;;2.73;;
39890;SDS011;25564;53.312;9.790;2023-06-10T01:23:22;9.73;;;2.72;;
39890;SDS011;25564;53.312;9.790;2023-06-10T01:26:01;5.30;;;2.73;;
39890;SDS011;25564;53.312;9.790;2023-06-10T01:28:37;6.87;;;2.63;;
39890;SDS011;25564;53.312;9.790;2023-06-10T01:31:13;8.33;;;2.50;;
39890;SDS011;25564;53.312;9.790;2023-06-10T01:33:52;5.73;;;2.73;;
39890;SDS011;25564;53.312;9.790;2023-06-10T01:36:24;7.53;;;2.27;;
39890;SDS011;25564;53.312;9.790;2023-06-10T01:38:56;7.90;;;2.50;;
39890;SDS011;25564;53.312;9.790;2023-06-10T01:41:30;6.13;;;2.77;;
39890;SDS011;25564;53.312;9.790;2023-06-10T01:44:02;10.00;;;2.20;;
39890;SDS011;25564;53.312;9.790;2023-06-10T01:46:34;7.67;;;2.80;;
39890;SDS011;25564;53.312;9.790;2023-06-10T01:49:05;6.10;;;2.30;;
39890;SDS011;25564;53.312;9.790;2023-06-10T01:51:38;7.07;;;2.40;;
39890;SDS011;25564;53.312;9.790;2023-06-10T01:54:09;9.57;;;2.70;;
39890;SDS011;25564;53.312;9.790;2023-06-10T01:56:40;5.87;;;2.43;;
39890;SDS011;25564;53.312;9.790;2023-06-10T01:59:12;7.40;;;2.60;;
39890;SDS011;25564;53.312;9.790;2023-06-10T02:01:43;4.67;;;2.37;;
39890;SDS011;25564;53.312;9.790;2023-06-10T02:04:15;5.90;;;2.37;;
39890;SDS011;25564;53.312;9.790;2023-06-10T02:06:47;5.23;;;3.00;;
39890;SDS011;25564;53.312;9.790;2023-06-10T02:09:19;6.73;;;2.90;;
39890;SDS011;25564;53.312;9.790;2023-06-10T02:11:50;12.67;;;2.77;;
39890;SDS011;25564;53.312;9.790;2023-06-10T02:14:22;6.13;;;2.67;;
39890;SDS011;25564;53.312;9.790;2023-06-10T02:16:53;5.77;;;2.30;;
39890;SDS011;25564;53.312;9.790;2023-06-10T02:19:27;7.90;;;2.60;;
39890;SDS011;25564;53.312;9.790;2023-06-10T02:21:59;3.83;;;2.00;;
39890;SDS011;25564;53.312;9.790;2023-06-10T02:24:30;4.83;;;2.53;;
39890;SDS011;25564;53.312;9.790;2023-06-10T02:27:02;7.07;;;2.00;;
39890;SDS011;25564;53.312;9.790;2023-06-10T02:29:34;7.17;;;2.17;;
39890;SDS011;25564;53.312;9.790;2023-06-10T02:32:06;7.00;;;2.17;;
39890;SDS011;25564;53.312;9.790;2023-06-10T02:34:41;10.27;;;2.30;;
39890;SDS011;25564;53.312;9.790;2023-06-10T02:37:13;4.53;;;2.40;;
39890;SDS011;25564;53.312;9.790;2023-06-10T02:39:45;3.53;;;2.20;;
39890;SDS011;25564;53.312;9.790;2023-06-10T02:42:16;5.83;;;2.60;;
39890;SDS011;25564;53.312;9.790;2023-06-10T02:44:48;7.43;;;2.00;;
39890;SDS011;25564;53.312;9.790;2023-06-10T02:47:19;8.63;;;3.00;;
39890;SDS011;25564;53.312;9.790;2023-06-10T02:49:50;11.90;;;2.87;;
39890;SDS011;25564;53.312;9.790;2023-06-10T02:52:22;7.50;;;1.97;;
39890;SDS011;25564;53.312;9.790;2023-06-10T02:54:53;7.40;;;2.07;;
39890;SDS011;25564;53.312;9.790;2023-06-10T02:57:25;8.03;;;2.03;;
39890;SDS011;25564;53.312;9.790;2023-06-10T02:59:56;5.67;;;2.37;;
39890;SDS011;25564;53.312;9.790;2023-06-10T03:02:29;7.27;;;2.33;;
39890;SDS011;25564;53.312;9.790;2023-06-10T03:05:02;8.03;;;1.77;;
39890;SDS011;25564;53.312;9.790;2023-06-10T03:07:34;6.50;;;2.20;;
39890;SDS011;25564;53.312;9.790;2023-06-10T03:10:06;4.80;;;1.80;;
39890;SDS011;25564;53.312;9.790;2023-06-10T03:12:38;5.50;;;2.00;;
39890;SDS011;25564;53.312;9.790;2023-06-10T03:15:09;5.63;;;2.33;;
39890;SDS011;25564;53.312;9.790;2023-06-10T03:17:41;6.00;;;2.20;;
39890;SDS011;25564;53.312;9.790;2023-06-10T03:20:12;3.77;;;1.83;;
39890;SDS011;25564;53.312;9.790;2023-06-10T03:22:46;5.43;;;2.30;;
39890;SDS011;25564;53.312;9.790;2023-06-10T03:25:18;8.80;;;1.70;;
39890;SDS011;25564;53.312;9.790;2023-06-10T03:27:51;8.30;;;1.60;;
39890;SDS011;25564;53.312;9.790;2023-06-10T03:30:23;5.17;;;2.07;;
39890;SDS011;25564;53.312;9.790;2023-06-10T03:32:54;7.77;;;2.20;;
39890;SDS011;25564;53.312;9.790;2023-06-10T03:35:25;3.50;;;2.00;;
39890;SDS011;25564;53.312;9.790;2023-06-10T03:37:57;6.93;;;1.93;;
39890;SDS011;25564;53.312;9.790;2023-06-10T03:40:28;8.37;;;2.40;;
39890;SDS011;25564;53.312;9.790;2023-06-10T03:43:02;3.73;;;1.43;;
39890;SDS011;25564;53.312;9.790;2023-06-10T03:45:33;9.17;;;2.10;;
39890;SDS011;25564;53.312;9.790;2023-06-10T03:48:05;6.87;;;2.43;;
39890;SDS011;25564;53.312;9.790;2023-06-10T03:50:37;5.37;;;1.80;;
39890;SDS011;25564;53.312;9.790;2023-06-10T03:53:08;4.53;;;2.10;;
39890;SDS011;25564;53.312;9.790;2023-06-10T03:55:40;3.90;;;2.37;;
39890;SDS011;25564;53.312;9.790;2023-06-10T03:58:12;8.47;;;2.00;;
39890;SDS011;25564;53.312;9.790;2023-06-10T04:00:45;5.63;;;2.00;;
39890;SDS011;25564;53.312;9.790;2023-06-10T04:03:18;5.60;;;1.77;;
39890;SDS011;25564;53.312;9.790;2023-06-10T04:05:52;5.70;;;2.47;;
39890;SDS011;25564;53.312;9.790;2023-06-10T04:08:23;6.37;;;1.80;;
39890;SDS011;25564;53.312;9.790;2023-06-10T04:10:55;6.70;;;2.47;;
39890;SDS011;25564;53.312;9.790;2023-06-10T04:13:27;7.40;;;2.10;;
39890;SDS011;25564;53.312;9.790;2023-06-10T04:15:58;8.33;;;2.40;;
39890;SDS011;25564;53.312;9.790;2023-06-10T04:18:30;6.37;;;1.90;;
39890;SDS011;25564;53.312;9.790;2023-06-10T04:21:01;5.77;;;2.07;;
39890;SDS011;25564;53.312;9.790;2023-06-10T04:23:33;6.50;;;2.20;;
39890;SDS011;25564;53.312;9.790;2023-06-10T04:26:04;4.43;;;1.90;;
39890;SDS011;25564;53.312;9.790;2023-06-10T04:28:37;9.87;;;1.80;;
39890;SDS011;25564;53.312;9.790;2023-06-10T04:31:08;6.60;;;2.10;;
39890;SDS011;25564;53.312;9.790;2023-06-10T04:33:40;8.67;;;2.07;;
39890;SDS011;25564;53.312;9.790;2023-06-10T04:36:11;10.30;;;2.27;;
39890;SDS011;25564;53.312;9.790;2023-06-10T04:38:42;8.33;;;2.13;;
39890;SDS011;25564;53.312;9.790;2023-06-10T04:41:14;8.23;;;2.27;;
39890;SDS011;25564;53.312;9.790;2023-06-10T04:43:45;5.53;;;1.83;;
39890;SDS011;25564;53.312;9.790;2023-06-10T04:46:17;5.83;;;2.00;;
39890;SDS011;25564;53.312;9.790;2023-06-10T04:48:48;5.13;;;2.37;;
39890;SDS011;25564;53.312;9.790;2023-06-10T04:51:20;8.37;;;2.30;;
39890;SDS011;25564;53.312;9.790;2023-06-10T04:53:51;6.10;;;1.90;;
39890;SDS011;25564;53.312;9.790;2023-06-10T04:56:23;6.87;;;2.40;;
39890;SDS011;25564;53.312;9.790;2023-06-10T04:58:57;5.73;;;2.10;;
39890;SDS011;25564;53.312;9.790;2023-06-10T05:01:28;6.03;;;2.60;;
39890;SDS011;25564;53.312;9.790;2023-06-10T05:04:00;9.70;;;2.63;;
39890;SDS011;25564;53.312;9.790;2023-06-10T05:06:31;7.00;;;2.03;;
39890;SDS011;25564;53.312;9.790;2023-06-10T05:09:02;8.63;;;2.73;;
39890;SDS011;25564;53.312;9.790;2023-06-10T05:11:34;6.97;;;1.90;;
39890;SDS011;25564;53.312;9.790;2023-06-10T05:14:05;7.53;;;2.23;;
39890;SDS011;25564;53.312;9.790;2023-06-10T05:16:36;8.63;;;2.03;;
39890;SDS011;25564;53.312;9.790;2023-06-10T05:19:08;8.23;;;1.93;;
39890;SDS011;25564;53.312;9.790;2023-06-10T05:21:40;7.20;;;2.43;;
39890;SDS011;25564;53.312;9.790;2023-06-10T05:24:11;4.77;;;1.97;;
39890;SDS011;25564;53.312;9.790;2023-06-10T05:26:43;3.93;;;1.73;;
39890;SDS011;25564;53.312;9.790;2023-06-10T05:29:14;4.83;;;2.00;;
39890;SDS011;25564;53.312;9.790;2023-06-10T05:31:46;7.97;;;3.10;;
39890;SDS011;25564;53.312;9.790;2023-06-10T05:34:18;8.90;;;2.37;;
39890;SDS011;25564;53.312;9.790;2023-06-10T05:36:49;6.73;;;1.83;;
39890;SDS011;25564;53.312;9.790;2023-06-10T05:39:21;6.60;;;2.10;;
39890;SDS011;25564;53.312;9.790;2023-06-10T05:41:52;8.13;;;1.90;;
39890;SDS011;25564;53.312;9.790;2023-06-10T05:44:23;3.80;;;2.10;;
39890;SDS011;25564;53.312;9.790;2023-06-10T05:46:55;6.20;;;1.90;;
39890;SDS011;25564;53.312;9.790;2023-06-10T05:49:26;7.17;;;2.20;;
39890;SDS011;25564;53.312;9.790;2023-06-10T05:51:58;4.00;;;1.87;;
39890;SDS011;25564;53.312;9.790;2023-06-10T05:54:30;8.70;;;2.77;;
39890;SDS011;25564;53.312;9.790;2023-06-10T05:57:01;4.33;;;1.83;;
39890;SDS011;25564;53.312;9.790;2023-06-10T05:59:34;6.27;;;2.20;;
39890;SDS011;25564;53.312;9.790;2023-06-10T06:02:06;8.87;;;1.83;;
39890;SDS011;25564;53.312;9.790;2023-06-10T06:04:37;4.37;;;1.77;;
39890;SDS011;25564;53.312;9.790;2023-06-10T06:07:09;5.33;;;2.00;;
39890;SDS011;25564;53.312;9.790;2023-06-10T06:09:40;6.20;;;1.90;;
39890;SDS011;25564;53.312;9.790;2023-06-10T06:12:11;7.63;;;2.27;;
39890;SDS011;25564;53.312;9.790;2023-06-10T06:14:43;6.10;;;2.10;;
39890;SDS011;25564;53.312;9.790;2023-06-10T06:17:15;7.27;;;2.20;;
39890;SDS011;25564;53.312;9.790;2023-06-10T06:19:47;3.43;;;1.70;;
39890;SDS011;25564;53.312;9.790;2023-06-10T06:22:19;6.13;;;2.10;;
39890;SDS011;25564;53.312;9.790;2023-06-10T06:24:53;6.63;;;1.87;;
39890;SDS011;25564;53.312;9.790;2023-06-10T06:27:24;7.83;;;2.63;;
39890;SDS011;25564;53.312;9.790;2023-06-10T06:29:56;5.27;;;2.43;;
39890;SDS011;25564;53.312;9.790;2023-06-10T06:32:27;8.43;;;3.03;;
39890;SDS011;25564;53.312;9.790;2023-06-10T06:34:59;6.27;;;1.93;;
39890;SDS011;25564;53.312;9.790;2023-06-10T06:37:30;5.90;;;2.10;;
39890;SDS011;25564;53.312;9.790;2023-06-10T06:40:02;6.73;;;1.97;;
39890;SDS011;25564;53.312;9.790;2023-06-10T06:42:35;9.97;;;1.93;;
39890;SDS011;25564;53.312;9.790;2023-06-10T06:45:06;4.57;;;1.80;;
39890;SDS011;25564;53.312;9.790;2023-06-10T06:47:38;5.80;;;2.03;;
39890;SDS011;25564;53.312;9.790;2023-06-10T06:50:10;8.03;;;2.37;;
39890;SDS011;25564;53.312;9.790;2023-06-10T06:52:41;6.07;;;1.63;;
39890;SDS011;25564;53.312;9.790;2023-06-10T06:55:12;6.20;;;2.30;;
39890;SDS011;25564;53.312;9.790;2023-06-10T06:57:44;6.43;;;2.17;;
39890;SDS011;25564;53.312;9.790;2023-06-10T07:00:15;4.87;;;1.70;;
39890;SDS011;25564;53.312;9.790;2023-06-10T07:02:48;5.40;;;2.60;;
39890;SDS011;25564;53.312;9.790;2023-06-10T07:05:19;6.43;;;1.80;;
39890;SDS011;25564;53.312;9.790;2023-06-10T07:07:51;3.53;;;1.80;;
39890;SDS011;25564;53.312;9.790;2023-06-10T07:10:26;5.17;;;2.00;;
39890;SDS011;25564;53.312;9.790;2023-06-10T07:12:58;5.27;;;1.77;;
39890;SDS011;25564;53.312;9.790;2023-06-10T07:15:29;5.13;;;2.07;;
39890;SDS011;25564;53.312;9.790;2023-06-10T07:18:01;5.03;;;1.67;;
39890;SDS011;25564;53.312;9.790;2023-06-10T07:20:33;7.10;;;1.90;;
39890;SDS011;25564;53.312;9.790;2023-06-10T07:23:04;6.57;;;2.13;;
39890;SDS011;25564;53.312;9.790;2023-06-10T07:25:35;4.70;;;2.13;;
39890;SDS011;25564;53.312;9.790;2023-06-10T07:28:07;7.03;;;1.70;;
39890;SDS011;25564;53.312;9.790;2023-06-10T07:30:38;6.97;;;1.75;;
39890;SDS011;25564;53.312;9.790;2023-06-10T07:33:10;6.03;;;1.57;;
39890;SDS011;25564;53.312;9.790;2023-06-10T07:35:42;9.07;;;2.23;;
39890;SDS011;25564;53.312;9.790;2023-06-10T07:38:14;6.25;;;2.00;;
39890;SDS011;25564;53.312;9.790;2023-06-10T07:40:45;4.50;;;2.20;;
39890;SDS011;25564;53.312;9.790;2023-06-10T07:43:17;4.68;;;1.45;;
39890;SDS011;25564;53.312;9.790;2023-06-10T07:45:48;7.65;;;1.50;;
39890;SDS011;25564;53.312;9.790;2023-06-10T07:48:20;3.85;;;1.70;;
39890;SDS011;25564;53.312;9.790;2023-06-10T07:50:51;6.47;;;1.73;;
39890;SDS011;25564;53.312;9.790;2023-06-10T07:53:23;6.63;;;1.80;;
39890;SDS011;25564;53.312;9.790;2023-06-10T07:55:55;4.82;;;1.95;;
39890;SDS011;25564;53.312;9.790;2023-06-10T07:58:26;6.10;;;1.92;;
39890;SDS011;25564;53.312;9.790;2023-06-10T08:00:57;4.47;;;2.17;;
39890;SDS011;25564;53.312;9.790;2023-06-10T08:03:29;5.57;;;1.70;;
39890;SDS011;25564;53.312;9.790;2023-06-10T08:06:01;5.35;;;1.67;;
39890;SDS011;25564;53.312;9.790;2023-06-10T08:08:32;5.47;;;1.92;;
39890;SDS011;25564;53.312;9.790;2023-06-10T08:11:03;5.95;;;1.65;;
39890;SDS011;25564;53.312;9.790;2023-06-10T08:13:36;4.00;;;1.83;;
39890;SDS011;25564;53.312;9.790;2023-06-10T08:16:08;5.55;;;2.03;;
39890;SDS011;25564;53.312;9.790;2023-06-10T08:18:39;7.05;;;1.58;;
39890;SDS011;25564;53.312;9.790;2023-06-10T08:21:11;4.95;;;2.00;;
39890;SDS011;25564;53.312;9.790;2023-06-10T08:23:42;7.63;;;1.70;;
39890;SDS011;25564;53.312;9.790;2023-06-10T08:26:15;4.90;;;1.85;;
39890;SDS011;25564;53.312;9.790;2023-06-10T08:28:46;3.75;;;1.83;;
39890;SDS011;25564;53.312;9.790;2023-06-10T08:31:18;8.50;;;2.38;;
39890;SDS011;25564;53.312;9.790;2023-06-10T08:33:49;3.55;;;1.35;;
39890;SDS011;25564;53.312;9.790;2023-06-10T08:36:20;4.88;;;1.70;;
39890;SDS011;25564;53.312;9.790;2023-06-10T08:38:52;6.00;;;1.52;;
39890;SDS011;25564;53.312;9.790;2023-06-10T08:41:23;5.47;;;1.85;;
39890;SDS011;25564;53.312;9.790;2023-06-10T08:44:12;7.25;;;2.30;;
39890;SDS011;25564;53.312;9.790;2023-06-10T08:46:51;5.13;;;2.00;;
39890;SDS011;25564;53.312;9.790;2023-06-10T08:49:24;7.55;;;1.90;;
39890;SDS011;25564;53.312;9.790;2023-06-10T08:51:58;3.63;;;1.98;;
39890;SDS011;25564;53.312;9.790;2023-06-10T08:54:31;3.58;;;1.42;;
39890;SDS011;25564;53.312;9.790;2023-06-10T08:57:05;5.93;;;1.75;;
39890;SDS011;25564;53.312;9.790;2023-06-10T08:59:37;3.40;;;1.58;;
39890;SDS011;25564;53.312;9.790;2023-06-10T09:02:09;8.32;;;2.75;;
39890;SDS011;25564;53.312;9.790;2023-06-10T09:04:42;5.45;;;1.92;;
39890;SDS011;25564;53.312;9.790;2023-06-10T09:07:17;5.55;;;1.77;;
39890;SDS011;25564;53.312;9.790;2023-06-10T09:09:49;3.80;;;1.73;;
39890;SDS011;25564;53.312;9.790;2023-06-10T09:12:20;5.55;;;1.90;;
39890;SDS011;25564;53.312;9.790;2023-06-10T09:14:52;6.43;;;1.88;;
39890;SDS011;25564;53.312;9.790;2023-06-10T09:17:23;4.03;;;1.85;;
39890;SDS011;25564;53.312;9.790;2023-06-10T09:19:55;4.55;;;1.80;;
39890;SDS011;25564;53.312;9.790;2023-06-10T09:22:28;4.75;;;1.90;;
39890;SDS011;25564;53.312;9.790;2023-06-10T09:27:47;3.80;;;1.33;;
39890;SDS011;25564;53.312;9.790;2023-06-10T09:33:01;4.35;;;1.92;;
39890;SDS011;25564;53.312;9.790;2023-06-10T09:35:34;5.53;;;2.20;;
39890;SDS011;25564;53.312;9.790;2023-06-10T09:38:05;3.42;;;1.80;;
39890;SDS011;25564;53.312;9.790;2023-06-10T09:43:22;7.63;;;1.63;;
39890;SDS011;25564;53.312;9.790;2023-06-10T09:45:55;3.35;;;1.67;;
39890;SDS011;25564;53.312;9.790;2023-06-10T09:48:28;7.03;;;2.13;;
39890;SDS011;25564;53.312;9.790;2023-06-10T09:50:59;5.80;;;2.22;;
39890;SDS011;25564;53.312;9.790;2023-06-10T09:53:33;4.28;;;1.58;;
39890;SDS011;25564;53.312;9.790;2023-06-10T09:56:05;4.65;;;1.60;;
39890;SDS011;25564;53.312;9.790;2023-06-10T09:58:40;6.78;;;1.90;;
39890;SDS011;25564;53.312;9.790;2023-06-10T10:01:14;5.18;;;1.80;;
39890;SDS011;25564;53.312;9.790;2023-06-10T10:03:46;4.72;;;1.25;;
39890;SDS011;25564;53.312;9.790;2023-06-10T10:06:19;3.13;;;1.75;;
39890;SDS011;25564;53.312;9.790;2023-06-10T10:08:51;7.30;;;2.05;;
39890;SDS011;25564;53.312;9.790;2023-06-10T10:11:23;6.38;;;2.08;;
39890;SDS011;25564;53.312;9.790;2023-06-10T10:13:57;4.25;;;1.70;;
39890;SDS011;25564;53.312;9.790;2023-06-10T10:16:39;4.38;;;1.75;;
39890;SDS011;25564;53.312;9.790;2023-06-10T10:19:16;4.75;;;1.65;;
39890;SDS011;25564;53.312;9.790;2023-06-10T10:21:54;3.83;;;2.15;;
39890;SDS011;25564;53.312;9.790;2023-06-10T10:24:33;5.68;;;1.88;;
39890;SDS011;25564;53.312;9.790;2023-06-10T10:27:13;3.70;;;1.80;;
39890;SDS011;25564;53.312;9.790;2023-06-10T10:29:50;5.35;;;1.77;;
39890;SDS011;25564;53.312;9.790;2023-06-10T10:32:35;6.63;;;2.40;;
39890;SDS011;25564;53.312;9.790;2023-06-10T10:35:12;7.25;;;1.83;;
39890;SDS011;25564;53.312;9.790;2023-06-10T10:37:53;4.25;;;1.75;;
39890;SDS011;25564;53.312;9.790;2023-06-10T10:40:26;6.35;;;1.92;;
39890;SDS011;25564;53.312;9.790;2023-06-10T10:43:00;6.88;;;1.90;;
39890;SDS011;25564;53.312;9.790;2023-06-10T10:45:33;2.55;;;1.30;;
39890;SDS011;25564;53.312;9.790;2023-06-10T10:48:07;7.70;;;2.40;;
39890;SDS011;25564;53.312;9.790;2023-06-10T10:50:43;4.78;;;1.77;;
39890;SDS011;25564;53.312;9.790;2023-06-10T10:53:14;3.15;;;1.80;;
39890;SDS011;25564;53.312;9.790;2023-06-10T10:59:04;5.25;;;2.20;;
39890;SDS011;25564;53.312;9.790;2023-06-10T11:01:40;4.60;;;1.85;;
39890;SDS011;25564;53.312;9.790;2023-06-10T11:04:13;4.30;;;1.77;;
39890;SDS011;25564;53.312;9.790;2023-06-10T11:06:52;4.80;;;2.00;;
39890;SDS011;25564;53.312;9.790;2023-06-10T11:09:25;3.30;;;1.80;;
39890;SDS011;25564;53.312;9.790;2023-06-10T11:14:31;5.78;;;1.60;;
39890;SDS011;25564;53.312;9.790;2023-06-10T11:17:04;5.32;;;1.98;;
39890;SDS011;25564;53.312;9.790;2023-06-10T11:19:49;4.35;;;2.03;;
39890;SDS011;25564;53.312;9.790;2023-06-10T11:22:20;3.65;;;1.88;;
39890;SDS011;25564;53.312;9.790;2023-06-10T11:24:52;4.30;;;1.63;;
39890;SDS011;25564;53.312;9.790;2023-06-10T11:27:24;2.92;;;1.95;;
39890;SDS011;25564;53.312;9.790;2023-06-10T11:32:37;7.85;;;2.80;;
39890;SDS011;25564;53.312;9.790;2023-06-10T11:35:08;4.15;;;2.10;;
39890;SDS011;25564;53.312;9.790;2023-06-10T11:37:40;6.75;;;2.00;;
39890;SDS011;25564;53.312;9.790;2023-06-10T11:40:12;3.97;;;2.03;;
39890;SDS011;25564;53.312;9.790;2023-06-10T11:42:43;4.35;;;2.28;;
39890;SDS011;25564;53.312;9.790;2023-06-10T11:45:16;4.13;;;2.13;;
39890;SDS011;25564;53.312;9.790;2023-06-10T11:48:00;6.25;;;2.10;;
39890;SDS011;25564;53.312;9.790;2023-06-10T11:50:32;6.55;;;2.40;;
39890;SDS011;25564;53.312;9.790;2023-06-10T11:53:04;4.32;;;2.30;;
39890;SDS011;25564;53.312;9.790;2023-06-10T11:55:45;7.22;;;2.10;;
39890;SDS011;25564;53.312;9.790;2023-06-10T12:03:24;6.50;;;2.92;;
39890;SDS011;25564;53.312;9.790;2023-06-10T12:05:57;3.97;;;2.40;;
39890;SDS011;25564;53.312;9.790;2023-06-10T12:08:30;3.50;;;2.33;;
39890;SDS011;25564;53.312;9.790;2023-06-10T12:11:07;3.63;;;2.22;;
39890;SDS011;25564;53.312;9.790;2023-06-10T12:13:38;7.07;;;2.72;;
39890;SDS011;25564;53.312;9.790;2023-06-10T12:16:19;6.97;;;2.72;;
39890;SDS011;25564;53.312;9.790;2023-06-10T12:18:51;5.15;;;2.90;;
39890;SDS011;25564;53.312;9.790;2023-06-10T12:21:25;4.15;;;2.58;;
39890;SDS011;25564;53.312;9.790;2023-06-10T12:24:03;9.20;;;2.70;;
39890;SDS011;25564;53.312;9.790;2023-06-10T12:26:43;7.10;;;2.92;;
39890;SDS011;25564;53.312;9.790;2023-06-10T12:29:22;4.85;;;2.50;;
39890;SDS011;25564;53.312;9.790;2023-06-10T12:31:56;4.97;;;2.95;;
39890;SDS011;25564;53.312;9.790;2023-06-10T12:37:10;9.32;;;4.05;;
39890;SDS011;25564;53.312;9.790;2023-06-10T12:39:50;5.38;;;3.08;;
39890;SDS011;25564;53.312;9.790;2023-06-10T12:42:24;6.75;;;2.83;;
39890;SDS011;25564;53.312;9.790;2023-06-10T12:44:56;5.53;;;3.38;;
39890;SDS011;25564;53.312;9.790;2023-06-10T12:47:34;6.70;;;2.85;;
39890;SDS011;25564;53.312;9.790;2023-06-10T12:50:07;6.93;;;2.67;;
39890;SDS011;25564;53.312;9.790;2023-06-10T12:52:40;4.30;;;3.13;;
39890;SDS011;25564;53.312;9.790;2023-06-10T12:55:12;5.03;;;3.33;;
39890;SDS011;25564;53.312;9.790;2023-06-10T12:57:47;8.20;;;3.70;;
39890;SDS011;25564;53.312;9.790;2023-06-10T13:00:20;9.23;;;3.10;;
39890;SDS011;25564;53.312;9.790;2023-06-10T13:02:52;5.57;;;2.80;;
39890;SDS011;25564;53.312;9.790;2023-06-10T13:05:26;6.88;;;3.47;;
39890;SDS011;25564;53.312;9.790;2023-06-10T13:07:58;7.25;;;3.00;;
39890;SDS011;25564;53.312;9.790;2023-06-10T13:10:30;6.68;;;2.90;;
39890;SDS011;25564;53.312;9.790;2023-06-10T13:13:02;5.60;;;3.13;;
39890;SDS011;25564;53.312;9.790;2023-06-10T13:15:36;4.97;;;3.22;;
39890;SDS011;25564;53.312;9.790;2023-06-10T13:18:13;5.00;;;3.40;;
39890;SDS011;25564;53.312;9.790;2023-06-10T13:20:44;8.48;;;3.08;;
39890;SDS011;25564;53.312;9.790;2023-06-10T13:23:16;3.65;;;2.83;;
39890;SDS011;25564;53.312;9.790;2023-06-10T13:25:47;6.97;;;3.30;;
39890;SDS011;25564;53.312;9.790;2023-06-10T13:28:19;6.15;;;3.17;;
39890;SDS011;25564;53.312;9.790;2023-06-10T13:30:50;4.68;;;2.63;;
39890;SDS011;25564;53.312;9.790;2023-06-10T13:33:22;6.20;;;2.92;;
39890;SDS011;25564;53.312;9.790;2023-06-10T13:35:53;5.57;;;3.20;;
39890;SDS011;25564;53.312;9.790;2023-06-10T13:38:25;6.88;;;2.70;;
39890;SDS011;25564;53.312;9.790;2023-06-10T13:40:56;8.05;;;3.30;;
39890;SDS011;25564;53.312;9.790;2023-06-10T13:43:28;8.13;;;3.45;;
39890;SDS011;25564;53.312;9.790;2023-06-10T13:46:00;4.60;;;2.80;;
39890;SDS011;25564;53.312;9.790;2023-06-10T13:48:31;7.22;;;2.75;;
39890;SDS011;25564;53.312;9.790;2023-06-10T13:51:02;7.10;;;3.03;;
39890;SDS011;25564;53.312;9.790;2023-06-10T13:53:34;5.95;;;3.13;;
39890;SDS011;25564;53.312;9.790;2023-06-10T13:56:05;10.07;;;3.50;;
39890;SDS011;25564;53.312;9.790;2023-06-10T13:58:39;5.35;;;2.88;;
39890;SDS011;25564;53.312;9.790;2023-06-10T14:01:12;6.00;;;3.30;;
39890;SDS011;25564;53.312;9.790;2023-06-10T14:03:43;5.03;;;3.38;;
39890;SDS011;25564;53.312;9.790;2023-06-10T14:06:15;4.95;;;2.95;;
39890;SDS011;25564;53.312;9.790;2023-06-10T14:08:49;3.63;;;2.47;;
39890;SDS011;25564;53.312;9.790;2023-06-10T14:11:20;5.35;;;3.53;;
39890;SDS011;25564;53.312;9.790;2023-06-10T14:13:52;4.45;;;2.85;;
39890;SDS011;25564;53.312;9.790;2023-06-10T14:16:26;6.22;;;3.33;;
39890;SDS011;25564;53.312;9.790;2023-06-10T14:18:57;8.40;;;3.50;;
39890;SDS011;25564;53.312;9.790;2023-06-10T14:21:29;4.88;;;2.72;;
39890;SDS011;25564;53.312;9.790;2023-06-10T14:24:00;7.88;;;3.40;;
39890;SDS011;25564;53.312;9.790;2023-06-10T14:26:31;5.55;;;2.83;;
39890;SDS011;25564;53.312;9.790;2023-06-10T14:29:04;7.63;;;2.88;;
39890;SDS011;25564;53.312;9.790;2023-06-10T14:31:35;6.35;;;3.40;;
39890;SDS011;25564;53.312;9.790;2023-06-10T14:34:07;4.55;;;2.92;;
39890;SDS011;25564;53.312;9.790;2023-06-10T14:36:40;4.90;;;2.70;;
39890;SDS011;25564;53.312;9.790;2023-06-10T14:39:11;9.20;;;3.10;;
39890;SDS011;25564;53.312;9.790;2023-06-10T14:41:43;5.47;;;2.92;;
39890;SDS011;25564;53.312;9.790;2023-06-10T14:44:14;6.97;;;3.15;;
39890;SDS011;25564;53.312;9.790;2023-06-10T14:46:45;6.97;;;3.00;;
39890;SDS011;25564;53.312;9.790;2023-06-10T14:49:17;4.50;;;2.80;;
39890;SDS011;25564;53.312;9.790;2023-06-10T14:51:48;6.65;;;3.15;;
39890;SDS011;25564;53.312;9.790;2023-06-10T14:54:21;5.78;;;3.00;;
39890;SDS011;25564;53.312;9.790;2023-06-10T14:56:52;4.07;;;2.53;;
39890;SDS011;25564;53.312;9.790;2023-06-10T14:59:24;4.65;;;2.95;;
39890;SDS011;25564;53.312;9.790;2023-06-10T15:01:55;8.13;;;2.80;;
39890;SDS011;25564;53.312;9.790;2023-06-10T15:04:27;5.43;;;2.78;;
39890;SDS011;25564;53.312;9.790;2023-06-10T15:06:59;7.45;;;2.92;;
39890;SDS011;25564;53.312;9.790;2023-06-10T15:09:31;6.20;;;3.15;;
39890;SDS011;25564;53.312;9.790;2023-06-10T15:12:03;5.95;;;3.20;;
39890;SDS011;25564;53.312;9.790;2023-06-10T15:14:35;6.40;;;3.17;;
39890;SDS011;25564;53.312;9.790;2023-06-10T15:17:06;5.88;;;3.40;;
39890;SDS011;25564;53.312;9.790;2023-06-10T15:19:38;8.95;;;3.95;;
39890;SDS011;25564;53.312;9.790;2023-06-10T15:22:09;7.78;;;3.90;;
39890;SDS011;25564;53.312;9.790;2023-06-10T15:24:42;4.70;;;3.28;;
39890;SDS011;25564;53.312;9.790;2023-06-10T15:27:14;5.40;;;3.20;;
39890;SDS011;25564;53.312;9.790;2023-06-10T15:29:45;5.53;;;3.38;;
39890;SDS011;25564;53.312;9.790;2023-06-10T15:32:17;6.38;;;2.80;;
39890;SDS011;25564;53.312;9.790;2023-06-10T15:34:49;5.57;;;2.88;;
39890;SDS011;25564;53.312;9.790;2023-06-10T15:37:24;5.70;;;2.35;;
39890;SDS011;25564;53.312;9.790;2023-06-10T15:39:55;5.70;;;2.38;;
39890;SDS011;25564;53.312;9.790;2023-06-10T15:42:27;9.85;;;3.00;;
39890;SDS011;25564;53.312;9.790;2023-06-10T15:44:58;4.85;;;2.33;;